F45

North Palm Beach County General Aviation Airport

West Palm Beach, Florida, USA
METAR KF45 210950Z AUTO 00000KT 10SM CLR 24/24 A2998 RMK AO2
Observed Flight Rules
Jul-21 @ 09:50 UTC (12 minutes ago) Visual Flight Rules
Visibility Clouds
10 miles
  • Clear skies
Temperatures Readings
Current 24°C / 75°F
Dewpoint 24°C / 75°F
Humidity 100%
Altimeter 29.98" Hg
Pressure 1015 hPa
Elevation 7
METAR KF45 210950Z AUTO 00000KT 10SM CLR 24/24 A2998 RMK AO2
Observed Flight Rules
Jul-21 @ 09:50 UTC
(12 minutes ago)
VFR
Clouds
  • Clear skies
Temperature Dewpoint
24°C / 75°F 24°C / 75°F
Humidity Altimeter Pressure
100% 29.98" Hg 1015 hPa